sensor_id;sensor_type;location;lat;lon;timestamp;P1;durP1;ratioP1;P2;durP2;ratioP2
68942;SDS011;60852;52.190;4.422;2024-02-23T00:01:26;10.04;;;6.43;;
68942;SDS011;60852;52.190;4.422;2024-02-23T00:03:51;10.37;;;6.67;;
68942;SDS011;60852;52.190;4.422;2024-02-23T00:06:17;9.83;;;6.34;;
68942;SDS011;60852;52.190;4.422;2024-02-23T00:08:43;8.96;;;5.87;;
68942;SDS011;60852;52.190;4.422;2024-02-23T00:11:08;10.77;;;6.96;;
68942;SDS011;60852;52.190;4.422;2024-02-23T00:13:34;10.48;;;6.73;;
68942;SDS011;60852;52.190;4.422;2024-02-23T00:16:00;10.55;;;6.73;;
68942;SDS011;60852;52.190;4.422;2024-02-23T00:18:25;11.30;;;7.12;;
68942;SDS011;60852;52.190;4.422;2024-02-23T00:20:51;10.13;;;6.38;;
68942;SDS011;60852;52.190;4.422;2024-02-23T00:23:16;10.62;;;6.71;;
68942;SDS011;60852;52.190;4.422;2024-02-23T00:25:42;10.53;;;6.75;;
68942;SDS011;60852;52.190;4.422;2024-02-23T00:28:08;11.30;;;7.16;;
68942;SDS011;60852;52.190;4.422;2024-02-23T00:30:34;12.11;;;7.54;;
68942;SDS011;60852;52.190;4.422;2024-02-23T00:32:59;10.96;;;6.90;;
68942;SDS011;60852;52.190;4.422;2024-02-23T00:35:25;10.35;;;6.55;;
68942;SDS011;60852;52.190;4.422;2024-02-23T00:37:50;11.28;;;7.24;;
68942;SDS011;60852;52.190;4.422;2024-02-23T00:40:15;11.67;;;7.44;;
68942;SDS011;60852;52.190;4.422;2024-02-23T00:42:41;11.23;;;7.18;;
68942;SDS011;60852;52.190;4.422;2024-02-23T00:45:06;11.95;;;7.56;;
68942;SDS011;60852;52.190;4.422;2024-02-23T00:47:32;10.67;;;6.90;;
68942;SDS011;60852;52.190;4.422;2024-02-23T00:49:58;11.01;;;7.11;;
68942;SDS011;60852;52.190;4.422;2024-02-23T00:52:23;10.92;;;6.93;;
68942;SDS011;60852;52.190;4.422;2024-02-23T00:54:49;10.95;;;6.91;;
68942;SDS011;60852;52.190;4.422;2024-02-23T00:57:14;12.00;;;7.47;;
68942;SDS011;60852;52.190;4.422;2024-02-23T00:59:41;10.16;;;6.36;;
68942;SDS011;60852;52.190;4.422;2024-02-23T01:02:06;10.23;;;6.43;;
68942;SDS011;60852;52.190;4.422;2024-02-23T01:04:32;11.16;;;6.79;;
68942;SDS011;60852;52.190;4.422;2024-02-23T01:06:57;11.89;;;7.19;;
68942;SDS011;60852;52.190;4.422;2024-02-23T01:09:23;11.61;;;7.05;;
68942;SDS011;60852;52.190;4.422;2024-02-23T01:11:49;12.39;;;7.61;;
68942;SDS011;60852;52.190;4.422;2024-02-23T01:14:15;12.82;;;8.00;;
68942;SDS011;60852;52.190;4.422;2024-02-23T01:16:40;10.91;;;6.77;;
68942;SDS011;60852;52.190;4.422;2024-02-23T01:19:06;10.46;;;6.50;;
68942;SDS011;60852;52.190;4.422;2024-02-23T01:21:31;11.31;;;6.96;;
68942;SDS011;60852;52.190;4.422;2024-02-23T01:23:57;11.22;;;6.84;;
68942;SDS011;60852;52.190;4.422;2024-02-23T01:26:23;8.77;;;5.44;;
68942;SDS011;60852;52.190;4.422;2024-02-23T01:28:48;9.75;;;6.02;;
68942;SDS011;60852;52.190;4.422;2024-02-23T01:31:14;12.17;;;7.65;;
68942;SDS011;60852;52.190;4.422;2024-02-23T01:33:39;12.65;;;7.99;;
68942;SDS011;60852;52.190;4.422;2024-02-23T01:36:05;11.05;;;7.01;;
68942;SDS011;60852;52.190;4.422;2024-02-23T01:38:31;9.74;;;6.21;;
68942;SDS011;60852;52.190;4.422;2024-02-23T01:41:00;8.84;;;5.62;;
68942;SDS011;60852;52.190;4.422;2024-02-23T01:43:26;9.26;;;5.87;;
68942;SDS011;60852;52.190;4.422;2024-02-23T01:45:52;10.98;;;6.93;;
68942;SDS011;60852;52.190;4.422;2024-02-23T01:48:19;10.63;;;6.64;;
68942;SDS011;60852;52.190;4.422;2024-02-23T01:50:45;10.51;;;6.63;;
68942;SDS011;60852;52.190;4.422;2024-02-23T01:53:11;10.67;;;6.71;;
68942;SDS011;60852;52.190;4.422;2024-02-23T01:55:40;9.70;;;6.19;;
68942;SDS011;60852;52.190;4.422;2024-02-23T01:58:07;9.22;;;5.90;;
68942;SDS011;60852;52.190;4.422;2024-02-23T02:00:33;9.96;;;6.33;;
68942;SDS011;60852;52.190;4.422;2024-02-23T02:03:00;10.13;;;6.42;;
68942;SDS011;60852;52.190;4.422;2024-02-23T02:05:26;10.35;;;6.64;;
68942;SDS011;60852;52.190;4.422;2024-02-23T02:07:53;10.90;;;6.92;;
68942;SDS011;60852;52.190;4.422;2024-02-23T02:10:24;10.39;;;6.45;;
68942;SDS011;60852;52.190;4.422;2024-02-23T02:12:51;8.49;;;5.30;;
68942;SDS011;60852;52.190;4.422;2024-02-23T02:15:17;9.17;;;5.80;;
68942;SDS011;60852;52.190;4.422;2024-02-23T02:17:42;8.79;;;5.55;;
68942;SDS011;60852;52.190;4.422;2024-02-23T02:20:11;9.63;;;6.10;;
68942;SDS011;60852;52.190;4.422;2024-02-23T02:22:40;10.10;;;6.31;;
68942;SDS011;60852;52.190;4.422;2024-02-23T02:25:06;9.96;;;6.21;;
68942;SDS011;60852;52.190;4.422;2024-02-23T02:27:32;11.65;;;7.32;;
68942;SDS011;60852;52.190;4.422;2024-02-23T02:29:58;11.11;;;6.99;;
68942;SDS011;60852;52.190;4.422;2024-02-23T02:32:23;10.45;;;6.54;;
68942;SDS011;60852;52.190;4.422;2024-02-23T02:34:49;10.36;;;6.47;;
68942;SDS011;60852;52.190;4.422;2024-02-23T02:37:15;11.27;;;7.05;;
68942;SDS011;60852;52.190;4.422;2024-02-23T02:39:40;8.93;;;5.65;;
68942;SDS011;60852;52.190;4.422;2024-02-23T02:42:06;8.99;;;5.63;;
68942;SDS011;60852;52.190;4.422;2024-02-23T02:44:32;7.47;;;4.73;;
68942;SDS011;60852;52.190;4.422;2024-02-23T02:46:57;8.35;;;5.28;;
68942;SDS011;60852;52.190;4.422;2024-02-23T02:49:23;9.49;;;5.88;;
68942;SDS011;60852;52.190;4.422;2024-02-23T02:51:49;10.97;;;6.74;;
68942;SDS011;60852;52.190;4.422;2024-02-23T02:54:15;12.27;;;7.53;;
68942;SDS011;60852;52.190;4.422;2024-02-23T02:56:44;11.17;;;6.85;;
68942;SDS011;60852;52.190;4.422;2024-02-23T02:59:12;9.44;;;5.87;;
68942;SDS011;60852;52.190;4.422;2024-02-23T03:01:38;9.66;;;5.95;;
68942;SDS011;60852;52.190;4.422;2024-02-23T03:04:04;9.31;;;5.79;;
68942;SDS011;60852;52.190;4.422;2024-02-23T03:06:30;10.48;;;6.53;;
68942;SDS011;60852;52.190;4.422;2024-02-23T03:08:55;10.06;;;6.27;;
68942;SDS011;60852;52.190;4.422;2024-02-23T03:11:21;10.06;;;6.25;;
68942;SDS011;60852;52.190;4.422;2024-02-23T03:13:46;11.04;;;6.84;;
68942;SDS011;60852;52.190;4.422;2024-02-23T03:16:18;9.94;;;6.19;;
68942;SDS011;60852;52.190;4.422;2024-02-23T03:18:43;9.71;;;6.07;;
68942;SDS011;60852;52.190;4.422;2024-02-23T03:21:09;10.40;;;6.56;;
68942;SDS011;60852;52.190;4.422;2024-02-23T03:23:35;9.36;;;5.90;;
68942;SDS011;60852;52.190;4.422;2024-02-23T03:26:01;8.39;;;5.28;;
68942;SDS011;60852;52.190;4.422;2024-02-23T03:28:27;8.12;;;5.06;;
68942;SDS011;60852;52.190;4.422;2024-02-23T03:30:53;8.61;;;5.38;;
68942;SDS011;60852;52.190;4.422;2024-02-23T03:33:18;8.42;;;5.22;;
68942;SDS011;60852;52.190;4.422;2024-02-23T03:35:44;8.14;;;5.09;;
68942;SDS011;60852;52.190;4.422;2024-02-23T03:38:09;9.64;;;5.98;;
68942;SDS011;60852;52.190;4.422;2024-02-23T03:40:35;9.44;;;5.88;;
68942;SDS011;60852;52.190;4.422;2024-02-23T03:43:01;9.00;;;5.52;;
68942;SDS011;60852;52.190;4.422;2024-02-23T03:45:27;10.20;;;6.31;;
68942;SDS011;60852;52.190;4.422;2024-02-23T03:47:53;9.80;;;6.01;;
68942;SDS011;60852;52.190;4.422;2024-02-23T03:50:18;10.08;;;6.22;;
68942;SDS011;60852;52.190;4.422;2024-02-23T03:52:44;9.91;;;6.15;;
68942;SDS011;60852;52.190;4.422;2024-02-23T03:55:10;10.03;;;6.14;;
68942;SDS011;60852;52.190;4.422;2024-02-23T03:57:35;9.70;;;5.96;;
68942;SDS011;60852;52.190;4.422;2024-02-23T04:00:01;10.80;;;6.65;;
68942;SDS011;60852;52.190;4.422;2024-02-23T04:02:27;7.94;;;4.90;;
68942;SDS011;60852;52.190;4.422;2024-02-23T04:04:53;7.26;;;4.46;;
68942;SDS011;60852;52.190;4.422;2024-02-23T04:07:19;7.23;;;4.48;;
68942;SDS011;60852;52.190;4.422;2024-02-23T04:09:44;7.26;;;4.52;;
68942;SDS011;60852;52.190;4.422;2024-02-23T04:12:17;6.58;;;4.12;;
68942;SDS011;60852;52.190;4.422;2024-02-23T04:14:44;6.81;;;4.33;;
68942;SDS011;60852;52.190;4.422;2024-02-23T04:17:10;5.62;;;3.67;;
68942;SDS011;60852;52.190;4.422;2024-02-23T04:19:37;6.09;;;4.01;;
68942;SDS011;60852;52.190;4.422;2024-02-23T04:22:02;6.30;;;4.13;;
68942;SDS011;60852;52.190;4.422;2024-02-23T04:24:28;6.24;;;4.07;;
68942;SDS011;60852;52.190;4.422;2024-02-23T04:26:54;6.55;;;4.25;;
68942;SDS011;60852;52.190;4.422;2024-02-23T04:29:19;5.85;;;3.81;;
68942;SDS011;60852;52.190;4.422;2024-02-23T04:31:45;5.54;;;3.64;;
68942;SDS011;60852;52.190;4.422;2024-02-23T04:34:10;6.15;;;4.09;;
68942;SDS011;60852;52.190;4.422;2024-02-23T04:36:36;6.71;;;4.45;;
68942;SDS011;60852;52.190;4.422;2024-02-23T04:39:01;6.97;;;4.62;;
68942;SDS011;60852;52.190;4.422;2024-02-23T04:41:27;7.22;;;4.92;;
68942;SDS011;60852;52.190;4.422;2024-02-23T04:43:53;6.30;;;4.67;;
68942;SDS011;60852;52.190;4.422;2024-02-23T04:46:23;5.94;;;4.62;;
68942;SDS011;60852;52.190;4.422;2024-02-23T04:48:49;5.31;;;4.34;;
68942;SDS011;60852;52.190;4.422;2024-02-23T04:51:14;3.84;;;3.15;;
68942;SDS011;60852;52.190;4.422;2024-02-23T04:53:40;3.63;;;2.92;;
68942;SDS011;60852;52.190;4.422;2024-02-23T04:56:06;3.12;;;2.41;;
68942;SDS011;60852;52.190;4.422;2024-02-23T04:58:31;3.01;;;2.20;;
68942;SDS011;60852;52.190;4.422;2024-02-23T05:00:57;3.20;;;2.29;;
68942;SDS011;60852;52.190;4.422;2024-02-23T05:03:22;3.13;;;2.20;;
68942;SDS011;60852;52.190;4.422;2024-02-23T05:05:48;3.12;;;2.15;;
68942;SDS011;60852;52.190;4.422;2024-02-23T05:08:18;3.30;;;2.25;;
68942;SDS011;60852;52.190;4.422;2024-02-23T05:10:49;3.03;;;2.02;;
68942;SDS011;60852;52.190;4.422;2024-02-23T05:13:15;3.21;;;2.15;;
68942;SDS011;60852;52.190;4.422;2024-02-23T05:15:41;2.90;;;1.93;;
68942;SDS011;60852;52.190;4.422;2024-02-23T05:18:07;2.70;;;1.78;;
68942;SDS011;60852;52.190;4.422;2024-02-23T05:20:32;2.67;;;1.75;;
68942;SDS011;60852;52.190;4.422;2024-02-23T05:22:58;2.91;;;1.90;;
68942;SDS011;60852;52.190;4.422;2024-02-23T05:25:23;2.49;;;1.62;;
68942;SDS011;60852;52.190;4.422;2024-02-23T05:27:51;2.46;;;1.58;;
68942;SDS011;60852;52.190;4.422;2024-02-23T05:30:16;2.61;;;1.65;;
68942;SDS011;60852;52.190;4.422;2024-02-23T05:32:42;2.52;;;1.59;;
68942;SDS011;60852;52.190;4.422;2024-02-23T05:35:07;2.76;;;1.74;;
68942;SDS011;60852;52.190;4.422;2024-02-23T05:37:34;3.39;;;2.15;;
68942;SDS011;60852;52.190;4.422;2024-02-23T05:40:00;3.00;;;1.91;;
68942;SDS011;60852;52.190;4.422;2024-02-23T05:42:29;3.54;;;2.24;;
68942;SDS011;60852;52.190;4.422;2024-02-23T05:44:54;4.04;;;2.63;;
68942;SDS011;60852;52.190;4.422;2024-02-23T05:47:20;4.06;;;2.74;;
68942;SDS011;60852;52.190;4.422;2024-02-23T05:49:46;4.53;;;3.16;;
68942;SDS011;60852;52.190;4.422;2024-02-23T05:52:12;4.05;;;2.98;;
68942;SDS011;60852;52.190;4.422;2024-02-23T05:54:37;3.80;;;3.02;;
68942;SDS011;60852;52.190;4.422;2024-02-23T05:57:03;3.54;;;2.90;;
68942;SDS011;60852;52.190;4.422;2024-02-23T05:59:29;3.51;;;3.01;;
68942;SDS011;60852;52.190;4.422;2024-02-23T06:01:55;3.48;;;3.09;;
68942;SDS011;60852;52.190;4.422;2024-02-23T06:04:24;3.83;;;3.51;;
68942;SDS011;60852;52.190;4.422;2024-02-23T06:06:50;3.68;;;3.47;;
68942;SDS011;60852;52.190;4.422;2024-02-23T06:09:15;3.18;;;3.10;;
68942;SDS011;60852;52.190;4.422;2024-02-23T06:11:41;2.99;;;2.94;;
68942;SDS011;60852;52.190;4.422;2024-02-23T06:14:07;3.01;;;3.01;;
68942;SDS011;60852;52.190;4.422;2024-02-23T06:16:33;3.01;;;3.01;;
68942;SDS011;60852;52.190;4.422;2024-02-23T06:18:58;3.04;;;3.04;;
68942;SDS011;60852;52.190;4.422;2024-02-23T06:21:24;3.20;;;3.20;;
68942;SDS011;60852;52.190;4.422;2024-02-23T06:23:49;3.02;;;3.02;;
68942;SDS011;60852;52.190;4.422;2024-02-23T06:26:17;3.39;;;3.32;;
68942;SDS011;60852;52.190;4.422;2024-02-23T06:28:42;3.44;;;3.40;;
68942;SDS011;60852;52.190;4.422;2024-02-23T06:31:08;3.73;;;3.64;;
68942;SDS011;60852;52.190;4.422;2024-02-23T06:33:35;3.51;;;3.37;;
68942;SDS011;60852;52.190;4.422;2024-02-23T06:36:00;3.70;;;3.51;;
68942;SDS011;60852;52.190;4.422;2024-02-23T06:38:27;3.62;;;3.48;;
68942;SDS011;60852;52.190;4.422;2024-02-23T06:40:53;3.65;;;3.48;;
68942;SDS011;60852;52.190;4.422;2024-02-23T06:43:20;3.50;;;3.42;;
68942;SDS011;60852;52.190;4.422;2024-02-23T06:45:45;3.42;;;3.36;;
68942;SDS011;60852;52.190;4.422;2024-02-23T06:48:11;3.20;;;3.15;;
68942;SDS011;60852;52.190;4.422;2024-02-23T06:50:36;3.45;;;3.33;;
68942;SDS011;60852;52.190;4.422;2024-02-23T06:53:01;3.32;;;3.18;;
68942;SDS011;60852;52.190;4.422;2024-02-23T06:55:27;3.35;;;3.18;;
68942;SDS011;60852;52.190;4.422;2024-02-23T06:57:53;3.21;;;2.99;;
68942;SDS011;60852;52.190;4.422;2024-02-23T07:00:22;3.64;;;3.37;;
68942;SDS011;60852;52.190;4.422;2024-02-23T07:02:47;3.61;;;3.32;;
68942;SDS011;60852;52.190;4.422;2024-02-23T07:05:13;3.46;;;3.25;;
68942;SDS011;60852;52.190;4.422;2024-02-23T07:07:39;3.37;;;3.17;;
68942;SDS011;60852;52.190;4.422;2024-02-23T07:10:06;3.60;;;3.36;;
68942;SDS011;60852;52.190;4.422;2024-02-23T07:12:32;3.79;;;3.56;;
68942;SDS011;60852;52.190;4.422;2024-02-23T07:14:58;3.62;;;3.41;;
68942;SDS011;60852;52.190;4.422;2024-02-23T07:17:23;3.93;;;3.72;;
68942;SDS011;60852;52.190;4.422;2024-02-23T07:19:49;3.78;;;3.62;;
68942;SDS011;60852;52.190;4.422;2024-02-23T07:22:16;4.21;;;4.02;;
68942;SDS011;60852;52.190;4.422;2024-02-23T07:24:43;4.08;;;3.97;;
68942;SDS011;60852;52.190;4.422;2024-02-23T07:27:09;4.04;;;4.04;;
68942;SDS011;60852;52.190;4.422;2024-02-23T07:29:35;4.09;;;4.07;;
68942;SDS011;60852;52.190;4.422;2024-02-23T07:32:00;4.61;;;4.54;;
68942;SDS011;60852;52.190;4.422;2024-02-23T07:34:26;4.89;;;4.89;;
68942;SDS011;60852;52.190;4.422;2024-02-23T07:36:52;4.60;;;4.60;;
68942;SDS011;60852;52.190;4.422;2024-02-23T07:39:17;4.72;;;4.72;;
68942;SDS011;60852;52.190;4.422;2024-02-23T07:41:43;5.04;;;5.04;;
68942;SDS011;60852;52.190;4.422;2024-02-23T07:44:08;4.79;;;4.79;;
68942;SDS011;60852;52.190;4.422;2024-02-23T07:46:34;4.92;;;4.92;;
68942;SDS011;60852;52.190;4.422;2024-02-23T07:48:59;5.07;;;5.07;;
68942;SDS011;60852;52.190;4.422;2024-02-23T07:51:25;5.07;;;5.07;;
68942;SDS011;60852;52.190;4.422;2024-02-23T07:53:50;5.14;;;5.14;;
68942;SDS011;60852;52.190;4.422;2024-02-23T07:56:16;4.96;;;4.96;;
68942;SDS011;60852;52.190;4.422;2024-02-23T07:58:42;5.22;;;5.22;;
68942;SDS011;60852;52.190;4.422;2024-02-23T08:01:07;5.11;;;5.11;;
68942;SDS011;60852;52.190;4.422;2024-02-23T08:03:33;4.82;;;4.82;;
68942;SDS011;60852;52.190;4.422;2024-02-23T08:05:58;4.64;;;4.64;;
68942;SDS011;60852;52.190;4.422;2024-02-23T08:08:24;4.97;;;4.97;;
68942;SDS011;60852;52.190;4.422;2024-02-23T08:10:50;5.00;;;5.00;;
68942;SDS011;60852;52.190;4.422;2024-02-23T08:13:16;5.16;;;5.16;;
68942;SDS011;60852;52.190;4.422;2024-02-23T08:15:43;5.48;;;5.48;;
68942;SDS011;60852;52.190;4.422;2024-02-23T08:18:08;5.45;;;5.45;;
68942;SDS011;60852;52.190;4.422;2024-02-23T08:20:34;5.55;;;5.55;;
68942;SDS011;60852;52.190;4.422;2024-02-23T08:23:00;5.47;;;5.47;;
68942;SDS011;60852;52.190;4.422;2024-02-23T08:25:25;5.78;;;5.78;;
68942;SDS011;60852;52.190;4.422;2024-02-23T08:27:54;5.63;;;5.63;;
68942;SDS011;60852;52.190;4.422;2024-02-23T08:30:20;5.62;;;5.62;;
68942;SDS011;60852;52.190;4.422;2024-02-23T08:32:46;5.54;;;5.54;;
68942;SDS011;60852;52.190;4.422;2024-02-23T08:35:11;5.51;;;5.51;;
68942;SDS011;60852;52.190;4.422;2024-02-23T08:37:37;5.19;;;5.19;;
68942;SDS011;60852;52.190;4.422;2024-02-23T08:40:04;5.54;;;5.54;;
68942;SDS011;60852;52.190;4.422;2024-02-23T08:42:31;5.34;;;5.34;;
68942;SDS011;60852;52.190;4.422;2024-02-23T08:44:57;5.34;;;5.34;;
68942;SDS011;60852;52.190;4.422;2024-02-23T08:47:22;5.66;;;5.66;;
68942;SDS011;60852;52.190;4.422;2024-02-23T08:49:48;5.57;;;5.57;;
68942;SDS011;60852;52.190;4.422;2024-02-23T08:52:13;5.40;;;5.40;;
68942;SDS011;60852;52.190;4.422;2024-02-23T08:54:39;4.95;;;4.95;;
68942;SDS011;60852;52.190;4.422;2024-02-23T08:57:05;4.64;;;4.64;;
68942;SDS011;60852;52.190;4.422;2024-02-23T08:59:30;4.27;;;4.27;;
68942;SDS011;60852;52.190;4.422;2024-02-23T09:01:55;4.41;;;4.41;;
68942;SDS011;60852;52.190;4.422;2024-02-23T09:04:21;4.37;;;4.37;;
68942;SDS011;60852;52.190;4.422;2024-02-23T09:06:46;4.17;;;4.16;;
68942;SDS011;60852;52.190;4.422;2024-02-23T09:09:12;3.66;;;3.61;;
68942;SDS011;60852;52.190;4.422;2024-02-23T09:11:37;3.61;;;3.55;;
68942;SDS011;60852;52.190;4.422;2024-02-23T09:14:03;3.77;;;3.62;;
68942;SDS011;60852;52.190;4.422;2024-02-23T09:16:29;3.48;;;3.34;;
68942;SDS011;60852;52.190;4.422;2024-02-23T09:18:54;3.14;;;2.98;;
68942;SDS011;60852;52.190;4.422;2024-02-23T09:21:20;2.97;;;2.74;;
68942;SDS011;60852;52.190;4.422;2024-02-23T09:23:45;3.15;;;2.85;;
68942;SDS011;60852;52.190;4.422;2024-02-23T09:26:11;3.08;;;2.78;;
68942;SDS011;60852;52.190;4.422;2024-02-23T09:28:37;3.18;;;2.78;;
68942;SDS011;60852;52.190;4.422;2024-02-23T09:31:02;3.44;;;2.96;;
68942;SDS011;60852;52.190;4.422;2024-02-23T09:33:29;3.21;;;2.79;;
68942;SDS011;60852;52.190;4.422;2024-02-23T09:35:56;3.47;;;3.01;;
68942;SDS011;60852;52.190;4.422;2024-02-23T09:38:22;3.24;;;2.76;;
68942;SDS011;60852;52.190;4.422;2024-02-23T09:40:50;3.64;;;3.11;;
68942;SDS011;60852;52.190;4.422;2024-02-23T09:43:19;3.38;;;2.93;;
68942;SDS011;60852;52.190;4.422;2024-02-23T09:45:47;3.45;;;2.96;;
68942;SDS011;60852;52.190;4.422;2024-02-23T09:48:17;3.76;;;3.09;;
68942;SDS011;60852;52.190;4.422;2024-02-23T09:50:45;3.93;;;3.21;;
68942;SDS011;60852;52.190;4.422;2024-02-23T09:53:13;3.41;;;2.84;;
68942;SDS011;60852;52.190;4.422;2024-02-23T09:55:39;3.45;;;2.92;;
68942;SDS011;60852;52.190;4.422;2024-02-23T09:58:05;3.39;;;2.89;;
68942;SDS011;60852;52.190;4.422;2024-02-23T10:00:33;3.14;;;2.70;;
68942;SDS011;60852;52.190;4.422;2024-02-23T10:03:03;3.47;;;3.00;;
68942;SDS011;60852;52.190;4.422;2024-02-23T10:05:30;3.27;;;2.80;;
68942;SDS011;60852;52.190;4.422;2024-02-23T10:07:57;2.94;;;2.55;;
68942;SDS011;60852;52.190;4.422;2024-02-23T10:10:29;3.13;;;2.75;;
68942;SDS011;60852;52.190;4.422;2024-02-23T10:12:57;2.71;;;2.41;;
68942;SDS011;60852;52.190;4.422;2024-02-23T10:15:24;2.73;;;2.45;;
68942;SDS011;60852;52.190;4.422;2024-02-23T10:17:49;3.11;;;2.74;;
68942;SDS011;60852;52.190;4.422;2024-02-23T10:20:14;3.42;;;3.03;;
68942;SDS011;60852;52.190;4.422;2024-02-23T10:22:40;3.30;;;2.90;;
68942;SDS011;60852;52.190;4.422;2024-02-23T10:25:06;3.40;;;2.96;;
68942;SDS011;60852;52.190;4.422;2024-02-23T10:27:31;3.49;;;2.98;;
68942;SDS011;60852;52.190;4.422;2024-02-23T10:29:57;3.72;;;3.27;;
68942;SDS011;60852;52.190;4.422;2024-02-23T10:32:25;3.59;;;3.23;;
68942;SDS011;60852;52.190;4.422;2024-02-23T10:34:55;3.30;;;2.93;;
68942;SDS011;60852;52.190;4.422;2024-02-23T10:37:29;3.41;;;3.07;;
68942;SDS011;60852;52.190;4.422;2024-02-23T10:39:57;3.27;;;3.00;;
68942;SDS011;60852;52.190;4.422;2024-02-23T10:42:24;3.01;;;2.76;;
68942;SDS011;60852;52.190;4.422;2024-02-23T10:44:58;3.21;;;2.94;;
68942;SDS011;60852;52.190;4.422;2024-02-23T10:47:26;3.11;;;2.86;;
68942;SDS011;60852;52.190;4.422;2024-02-23T10:49:55;2.94;;;2.77;;
68942;SDS011;60852;52.190;4.422;2024-02-23T10:52:25;3.21;;;2.90;;
68942;SDS011;60852;52.190;4.422;2024-02-23T10:54:52;3.24;;;2.95;;
68942;SDS011;60852;52.190;4.422;2024-02-23T10:57:18;3.28;;;3.00;;
68942;SDS011;60852;52.190;4.422;2024-02-23T10:59:45;3.53;;;3.19;;
68942;SDS011;60852;52.190;4.422;2024-02-23T11:02:12;3.46;;;3.13;;
68942;SDS011;60852;52.190;4.422;2024-02-23T11:04:45;3.48;;;3.19;;
68942;SDS011;60852;52.190;4.422;2024-02-23T11:07:19;3.78;;;3.52;;
68942;SDS011;60852;52.190;4.422;2024-02-23T11:09:54;3.32;;;3.12;;
68942;SDS011;60852;52.190;4.422;2024-02-23T11:12:24;3.28;;;3.11;;
68942;SDS011;60852;52.190;4.422;2024-02-23T11:14:50;3.25;;;3.10;;
68942;SDS011;60852;52.190;4.422;2024-02-23T11:17:21;2.99;;;2.87;;
68942;SDS011;60852;52.190;4.422;2024-02-23T11:19:50;3.20;;;2.99;;
68942;SDS011;60852;52.190;4.422;2024-02-23T11:22:23;2.76;;;2.56;;
68942;SDS011;60852;52.190;4.422;2024-02-23T11:24:51;2.89;;;2.69;;
68942;SDS011;60852;52.190;4.422;2024-02-23T11:27:16;3.06;;;2.87;;
68942;SDS011;60852;52.190;4.422;2024-02-23T11:29:47;3.12;;;2.94;;
68942;SDS011;60852;52.190;4.422;2024-02-23T11:32:23;3.24;;;3.20;;
68942;SDS011;60852;52.190;4.422;2024-02-23T11:35:05;2.93;;;2.91;;
68942;SDS011;60852;52.190;4.422;2024-02-23T11:37:32;2.73;;;2.69;;
68942;SDS011;60852;52.190;4.422;2024-02-23T11:39:58;2.89;;;2.77;;
68942;SDS011;60852;52.190;4.422;2024-02-23T11:42:27;2.58;;;2.47;;
68942;SDS011;60852;52.190;4.422;2024-02-23T11:44:54;2.58;;;2.39;;
68942;SDS011;60852;52.190;4.422;2024-02-23T11:47:23;2.74;;;2.49;;
68942;SDS011;60852;52.190;4.422;2024-02-23T11:49:50;3.10;;;2.79;;
68942;SDS011;60852;52.190;4.422;2024-02-23T11:52:15;2.69;;;2.44;;
68942;SDS011;60852;52.190;4.422;2024-02-23T11:54:42;3.15;;;2.84;;
68942;SDS011;60852;52.190;4.422;2024-02-23T11:57:07;2.91;;;2.62;;
68942;SDS011;60852;52.190;4.422;2024-02-23T11:59:33;2.93;;;2.69;;
68942;SDS011;60852;52.190;4.422;2024-02-23T12:01:58;2.83;;;2.56;;
68942;SDS011;60852;52.190;4.422;2024-02-23T12:04:26;2.66;;;2.33;;
68942;SDS011;60852;52.190;4.422;2024-02-23T12:06:52;3.00;;;2.61;;
68942;SDS011;60852;52.190;4.422;2024-02-23T12:09:18;2.68;;;2.40;;
68942;SDS011;60852;52.190;4.422;2024-02-23T12:11:44;2.67;;;2.43;;
68942;SDS011;60852;52.190;4.422;2024-02-23T12:14:10;2.58;;;2.32;;
68942;SDS011;60852;52.190;4.422;2024-02-23T12:16:36;2.59;;;2.32;;
68942;SDS011;60852;52.190;4.422;2024-02-23T12:19:02;2.77;;;2.55;;
68942;SDS011;60852;52.190;4.422;2024-02-23T12:21:28;2.64;;;2.36;;
68942;SDS011;60852;52.190;4.422;2024-02-23T12:23:53;2.59;;;2.28;;
68942;SDS011;60852;52.190;4.422;2024-02-23T12:26:19;2.80;;;2.41;;
68942;SDS011;60852;52.190;4.422;2024-02-23T12:28:46;2.76;;;2.35;;
68942;SDS011;60852;52.190;4.422;2024-02-23T12:31:12;2.72;;;2.34;;
68942;SDS011;60852;52.190;4.422;2024-02-23T12:33:38;3.24;;;2.75;;
68942;SDS011;60852;52.190;4.422;2024-02-23T12:36:05;3.43;;;2.93;;
68942;SDS011;60852;52.190;4.422;2024-02-23T12:38:32;2.76;;;2.42;;
68942;SDS011;60852;52.190;4.422;2024-02-23T12:40:59;2.46;;;2.14;;
68942;SDS011;60852;52.190;4.422;2024-02-23T12:43:25;2.65;;;2.25;;
68942;SDS011;60852;52.190;4.422;2024-02-23T12:45:54;2.72;;;2.27;;
68942;SDS011;60852;52.190;4.422;2024-02-23T12:48:21;3.14;;;2.55;;
68942;SDS011;60852;52.190;4.422;2024-02-23T12:50:48;3.83;;;3.02;;
68942;SDS011;60852;52.190;4.422;2024-02-23T12:53:30;3.10;;;2.44;;
68942;SDS011;60852;52.190;4.422;2024-02-23T12:56:02;3.36;;;2.56;;
68942;SDS011;60852;52.190;4.422;2024-02-23T12:58:29;3.80;;;2.81;;
68942;SDS011;60852;52.190;4.422;2024-02-23T13:00:56;4.09;;;2.98;;
68942;SDS011;60852;52.190;4.422;2024-02-23T13:03:22;3.84;;;2.78;;
68942;SDS011;60852;52.190;4.422;2024-02-23T13:05:48;3.48;;;2.51;;
68942;SDS011;60852;52.190;4.422;2024-02-23T13:08:14;3.91;;;2.81;;
68942;SDS011;60852;52.190;4.422;2024-02-23T13:10:40;3.80;;;2.73;;
68942;SDS011;60852;52.190;4.422;2024-02-23T13:13:06;3.94;;;2.78;;
68942;SDS011;60852;52.190;4.422;2024-02-23T13:15:31;3.62;;;2.57;;
68942;SDS011;60852;52.190;4.422;2024-02-23T13:17:56;3.83;;;2.77;;
68942;SDS011;60852;52.190;4.422;2024-02-23T13:20:22;3.68;;;2.69;;
68942;SDS011;60852;52.190;4.422;2024-02-23T13:22:48;4.38;;;3.10;;
68942;SDS011;60852;52.190;4.422;2024-02-23T13:25:14;3.70;;;2.64;;
68942;SDS011;60852;52.190;4.422;2024-02-23T13:27:39;2.88;;;2.13;;
68942;SDS011;60852;52.190;4.422;2024-02-23T13:30:05;3.36;;;2.49;;
68942;SDS011;60852;52.190;4.422;2024-02-23T13:32:32;3.23;;;2.38;;
68942;SDS011;60852;52.190;4.422;2024-02-23T13:34:57;2.68;;;1.98;;
68942;SDS011;60852;52.190;4.422;2024-02-23T13:37:23;2.69;;;1.96;;
68942;SDS011;60852;52.190;4.422;2024-02-23T13:39:48;3.02;;;2.18;;
68942;SDS011;60852;52.190;4.422;2024-02-23T13:42:14;2.81;;;1.99;;
68942;SDS011;60852;52.190;4.422;2024-02-23T13:44:39;2.85;;;1.97;;
68942;SDS011;60852;52.190;4.422;2024-02-23T13:47:05;3.13;;;2.16;;
68942;SDS011;60852;52.190;4.422;2024-02-23T13:49:30;3.08;;;2.13;;
68942;SDS011;60852;52.190;4.422;2024-02-23T13:51:55;2.64;;;1.85;;
68942;SDS011;60852;52.190;4.422;2024-02-23T13:54:21;2.38;;;1.70;;
68942;SDS011;60852;52.190;4.422;2024-02-23T13:56:47;2.35;;;1.67;;
68942;SDS011;60852;52.190;4.422;2024-02-23T13:59:12;3.09;;;2.19;;
68942;SDS011;60852;52.190;4.422;2024-02-23T14:01:38;4.00;;;2.80;;
68942;SDS011;60852;52.190;4.422;2024-02-23T14:04:06;5.17;;;3.45;;
68942;SDS011;60852;52.190;4.422;2024-02-23T14:06:35;4.65;;;3.09;;
68942;SDS011;60852;52.190;4.422;2024-02-23T14:09:00;3.61;;;2.39;;
68942;SDS011;60852;52.190;4.422;2024-02-23T14:11:28;3.24;;;2.14;;
68942;SDS011;60852;52.190;4.422;2024-02-23T14:13:54;3.29;;;2.19;;
68942;SDS011;60852;52.190;4.422;2024-02-23T14:16:20;2.95;;;1.96;;
68942;SDS011;60852;52.190;4.422;2024-02-23T14:18:45;3.54;;;2.38;;
68942;SDS011;60852;52.190;4.422;2024-02-23T14:21:11;3.45;;;2.37;;
68942;SDS011;60852;52.190;4.422;2024-02-23T14:23:39;3.40;;;2.32;;
68942;SDS011;60852;52.190;4.422;2024-02-23T14:26:04;3.09;;;2.10;;
68942;SDS011;60852;52.190;4.422;2024-02-23T14:28:30;2.81;;;1.92;;
68942;SDS011;60852;52.190;4.422;2024-02-23T14:30:55;2.33;;;1.61;;
68942;SDS011;60852;52.190;4.422;2024-02-23T14:33:23;2.37;;;1.67;;
68942;SDS011;60852;52.190;4.422;2024-02-23T14:35:51;2.31;;;1.65;;
68942;SDS011;60852;52.190;4.422;2024-02-23T14:38:17;2.62;;;1.90;;
68942;SDS011;60852;52.190;4.422;2024-02-23T14:40:42;1.98;;;1.47;;